createdAt,value
2022-11-07T10:54:44.652Z,49.43
2022-11-07T10:55:44.601Z,49.43
2022-11-07T10:56:44.598Z,49.43
2022-11-07T10:57:44.559Z,49.43
2022-11-07T10:58:44.555Z,49.43
2022-11-07T10:59:44.561Z,49.54
2022-11-07T11:00:44.622Z,49.54
2022-11-07T11:01:44.630Z,49.54
2022-11-07T11:02:44.543Z,49.54
2022-11-07T11:03:45.575Z,49.54
2022-11-07T11:04:49.594Z,49.51
2022-11-07T11:05:45.501Z,49.41
2022-11-07T11:06:44.523Z,49.41
2022-11-07T11:07:44.464Z,49.61
2022-11-07T11:08:44.469Z,49.61
2022-11-07T11:09:44.433Z,49.71
2022-11-07T11:10:44.422Z,49.71
2022-11-07T11:11:44.443Z,49.61
2022-11-07T11:12:44.441Z,49.61
2022-11-07T11:13:44.412Z,49.41
2022-11-07T11:14:44.401Z,49.43
2022-11-07T11:15:44.392Z,49.51
2022-11-07T11:16:44.485Z,49.51
2022-11-07T11:17:44.396Z,49.54
2022-11-07T11:18:44.433Z,49.31
2022-11-07T11:19:44.353Z,49.21
2022-11-07T11:20:44.346Z,49.33
2022-11-07T11:21:44.411Z,49.33
2022-11-07T11:22:44.343Z,49.31
2022-11-07T11:23:44.304Z,49.41
2022-11-07T11:24:45.300Z,49.51
2022-11-07T11:25:44.273Z,49.51
2022-11-07T11:26:44.293Z,49.51
2022-11-07T11:27:44.282Z,49.21
2022-11-07T11:28:44.254Z,49.31
2022-11-07T11:29:44.233Z,49.21
2022-11-07T11:30:44.253Z,49.21
2022-11-07T11:31:44.227Z,49.41
2022-11-07T11:32:44.263Z,49.21
2022-11-07T11:33:44.234Z,49.21
2022-11-07T11:34:44.186Z,49.21
2022-11-07T11:35:44.203Z,49.41
2022-11-07T11:36:44.175Z,49.41
2022-11-07T11:37:44.237Z,49.41
2022-11-07T11:38:44.166Z,49.41
2022-11-07T11:39:44.142Z,49.41
2022-11-07T11:40:44.183Z,49.31
2022-11-07T11:41:44.113Z,49.31
2022-11-07T11:42:44.121Z,49.41
2022-11-07T11:43:45.107Z,49.41
2022-11-07T11:44:44.096Z,49.41
2022-11-07T11:45:44.106Z,49.41
2022-11-07T11:46:44.077Z,49.41
2022-11-07T11:47:44.062Z,49.41
2022-11-07T11:48:44.055Z,49.41
2022-11-07T11:49:44.081Z,49.41
2022-11-07T11:50:44.024Z,49.51
2022-11-07T11:51:44.054Z,49.51
2022-11-07T11:52:44.013Z,49.41
2022-11-07T11:53:43.996Z,49.31
2022-11-07T11:54:44.011Z,49.31
2022-11-07T11:55:48.363Z,49.31
2022-11-07T11:56:44.972Z,49.31
2022-11-07T11:57:43.973Z,49.31
2022-11-07T11:58:43.961Z,49.31
2022-11-07T11:59:43.935Z,49.31
2022-11-07T12:00:43.956Z,49.31
2022-11-07T12:01:43.937Z,49.71
2022-11-07T12:02:44.025Z,49.91
2022-11-07T12:03:43.903Z,49.91
2022-11-07T12:04:44.647Z,49.81
2022-11-07T12:05:43.894Z,49.81
2022-11-07T12:06:43.882Z,49.81
2022-11-07T12:07:43.865Z,49.51
2022-11-07T12:08:43.846Z,49.41
2022-11-07T12:09:43.855Z,49.41
2022-11-07T12:10:44.008Z,49.41
2022-11-07T12:11:43.828Z,49.41
2022-11-07T12:12:43.836Z,49.41
2022-11-07T12:13:43.825Z,49.41
2022-11-07T12:14:43.786Z,49.51
2022-11-07T12:15:43.775Z,49.41
2022-11-07T12:16:43.765Z,49.41
2022-11-07T12:17:43.758Z,49.51
2022-11-07T12:18:43.775Z,49.41
2022-11-07T12:19:43.755Z,49.41
2022-11-07T12:20:43.756Z,49.41
2022-11-07T12:21:48.379Z,49.41
2022-11-07T12:22:44.704Z,49.41
2022-11-07T12:23:43.684Z,49.41
2022-11-07T12:24:43.684Z,49.31
2022-11-07T12:25:43.715Z,49.31
2022-11-07T12:26:43.694Z,49.31
2022-11-07T12:27:43.645Z,49.31
2022-11-07T12:28:43.655Z,49.31
2022-11-07T12:29:43.639Z,49.31
2022-11-07T12:30:43.616Z,49.31
2022-11-07T12:31:43.636Z,49.31
2022-11-07T12:32:43.606Z,49.21
2022-11-07T12:33:43.607Z,49.21
2022-11-07T12:34:43.605Z,49.21
2022-11-07T12:35:43.577Z,49.21
2022-11-07T12:36:43.587Z,49.21
2022-11-07T12:37:43.576Z,49.21
2022-11-07T12:38:43.550Z,49.21
2022-11-07T12:39:43.524Z,49.21
2022-11-07T12:40:43.516Z,49.21
2022-11-07T12:41:43.517Z,49.21
2022-11-07T12:42:43.687Z,49.21
2022-11-07T12:43:43.499Z,49.21
2022-11-07T12:44:43.488Z,49.21
2022-11-07T12:45:43.468Z,49.21
2022-11-07T12:46:43.456Z,49.21
2022-11-07T12:47:43.446Z,49.21
2022-11-07T12:48:43.465Z,49.21
2022-11-07T12:49:43.446Z,49.21
2022-11-07T12:50:43.447Z,49.11
2022-11-07T12:51:43.409Z,49.11
2022-11-07T12:52:43.403Z,49.11
2022-11-07T12:53:43.385Z,49.11
2022-11-07T12:54:43.379Z,49.11
2022-11-07T12:55:43.400Z,49.11
2022-11-07T12:56:43.418Z,49.11
2022-11-07T12:57:43.359Z,49.11
2022-11-07T12:58:43.394Z,49.11
2022-11-07T12:59:43.338Z,49.11
2022-11-07T13:00:43.335Z,49.11
2022-11-07T13:01:43.436Z,49.11
2022-11-07T13:02:43.397Z,49.11
2022-11-07T13:03:43.276Z,49.11
2022-11-07T13:04:43.278Z,49.11
2022-11-07T13:05:43.267Z,49.11
2022-11-07T13:06:43.329Z,49.01
2022-11-07T13:07:43.247Z,49.01
2022-11-07T13:08:43.229Z,49.01
2022-11-07T13:09:43.237Z,49.01
2022-11-07T13:10:43.208Z,49.01
2022-11-07T13:11:43.279Z,49.01
2022-11-07T13:12:43.200Z,49.01
2022-11-07T13:13:43.198Z,49.01
2022-11-07T13:14:43.248Z,49.01
2022-11-07T13:16:13.469Z,49.01
2022-11-07T13:16:44.168Z,49.01
2022-11-07T13:17:43.136Z,49.01
2022-11-07T13:18:43.163Z,49.01
2022-11-07T13:19:43.140Z,49.01
2022-11-07T13:20:43.118Z,48.91
2022-11-07T13:21:43.119Z,48.91
2022-11-07T13:22:43.105Z,48.91
2022-11-07T13:23:43.764Z,48.91
2022-11-07T13:24:43.080Z,48.91
2022-11-07T13:25:43.106Z,48.91
2022-11-07T13:26:47.630Z,48.91
2022-11-07T13:27:44.089Z,48.91
2022-11-07T13:28:43.058Z,48.91
2022-11-07T13:29:43.064Z,48.91
2022-11-07T13:30:43.040Z,48.91
2022-11-07T13:31:42.997Z,48.91
2022-11-07T13:32:43.018Z,48.91
2022-11-07T13:33:42.977Z,48.91
2022-11-07T13:34:42.987Z,48.91
2022-11-07T13:35:42.977Z,48.91
2022-11-07T13:36:42.948Z,48.91
2022-11-07T13:37:42.946Z,48.91
2022-11-07T13:38:42.938Z,48.91
2022-11-07T13:39:42.920Z,48.91
2022-11-07T13:40:42.920Z,48.91
2022-11-07T13:41:42.909Z,48.91
2022-11-07T13:42:42.891Z,48.91
2022-11-07T13:43:42.928Z,48.91
2022-11-07T13:44:42.875Z,48.91
2022-11-07T13:45:42.879Z,48.91
2022-11-07T13:46:42.840Z,48.91
2022-11-07T13:47:42.848Z,48.91
2022-11-07T13:48:42.858Z,48.91
2022-11-07T13:49:44.871Z,48.91
2022-11-07T13:50:42.823Z,48.91
2022-11-07T13:51:42.799Z,48.91
2022-11-07T13:52:42.789Z,48.91
2022-11-07T13:53:42.839Z,48.91
2022-11-07T13:54:42.777Z,48.91
2022-11-07T13:55:42.758Z,48.91
2022-11-07T13:56:42.768Z,48.91
2022-11-07T13:57:42.759Z,48.91
2022-11-07T13:58:42.718Z,48.91
2022-11-07T13:59:42.728Z,48.91
2022-11-07T14:00:42.803Z,48.91
2022-11-07T14:01:42.843Z,48.91
2022-11-07T14:02:42.760Z,48.91
2022-11-07T14:03:42.692Z,48.91
2022-11-07T14:05:02.445Z,48.91
2022-11-07T14:05:43.670Z,48.91
2022-11-07T14:06:42.650Z,48.91
2022-11-07T14:07:42.650Z,48.91
2022-11-07T14:08:42.651Z,48.91
2022-11-07T14:09:42.652Z,48.91
2022-11-07T14:10:42.687Z,48.91
2022-11-07T14:11:42.619Z,48.91
2022-11-07T14:12:42.589Z,48.91
2022-11-07T14:13:42.581Z,48.91
2022-11-07T14:14:42.630Z,48.91
2022-11-07T14:15:42.580Z,48.91
2022-11-07T14:16:42.901Z,48.91
2022-11-07T14:17:42.570Z,48.91
2022-11-07T14:18:42.539Z,48.91
2022-11-07T14:19:42.521Z,48.91
2022-11-07T14:20:42.531Z,49.01
2022-11-07T14:21:42.513Z,49.01
2022-11-07T14:22:42.511Z,49.11
2022-11-07T14:23:42.481Z,49.31
2022-11-07T14:24:42.461Z,49.31
2022-11-07T14:25:42.464Z,49.31
2022-11-07T14:26:43.931Z,49.31
2022-11-07T14:27:42.563Z,49.21
2022-11-07T14:28:42.470Z,49.21
2022-11-07T14:29:42.411Z,49.21
2022-11-07T14:30:42.432Z,49.21
2022-11-07T14:31:42.417Z,49.21
2022-11-07T14:32:42.389Z,49.21
2022-11-07T14:33:42.393Z,49.21
2022-11-07T14:34:42.372Z,49.21
2022-11-07T14:35:42.371Z,49.21
2022-11-07T14:36:42.351Z,49.31
2022-11-07T14:37:42.361Z,49.21
2022-11-07T14:38:42.322Z,49.21
2022-11-07T14:39:42.322Z,49.21
2022-11-07T14:40:42.353Z,49.21
2022-11-07T14:41:42.312Z,49.21
2022-11-07T14:42:42.290Z,49.21
2022-11-07T14:43:42.290Z,49.31
2022-11-07T14:44:53.769Z,49.31
2022-11-07T14:46:43.248Z,49.31
2022-11-07T14:47:42.250Z,49.21
2022-11-07T14:48:42.224Z,49.21
2022-11-07T14:49:42.230Z,49.21
2022-11-07T14:50:42.200Z,49.31
2022-11-07T14:51:42.192Z,49.21
2022-11-07T14:52:42.250Z,49.31
2022-11-07T14:53:42.232Z,49.31
2022-11-07T14:54:42.231Z,49.31
2022-11-07T14:55:42.151Z,49.31
2022-11-07T14:56:42.129Z,49.31
2022-11-07T14:57:42.200Z,49.31
2022-11-07T14:58:42.161Z,49.31
2022-11-07T14:59:42.162Z,49.31
2022-11-07T15:00:42.204Z,49.31
2022-11-07T15:01:42.225Z,49.21
2022-11-07T15:02:42.232Z,49.21
2022-11-07T15:03:42.133Z,49.21
2022-11-07T15:04:42.117Z,49.21
2022-11-07T15:05:42.112Z,49.11
2022-11-07T15:06:42.116Z,49.21
2022-11-07T15:07:42.098Z,49.21
2022-11-07T15:08:42.081Z,49.21
2022-11-07T15:09:42.051Z,49.21
2022-11-07T15:10:42.041Z,49.21
2022-11-07T15:11:42.111Z,49.21
2022-11-07T15:12:42.072Z,49.21
2022-11-07T15:13:42.050Z,49.21
2022-11-07T15:14:42.191Z,49.21
2022-11-07T15:15:42.000Z,49.21
2022-11-07T15:16:41.984Z,49.21
2022-11-07T15:17:42.033Z,49.21
2022-11-07T15:18:41.973Z,49.21
2022-11-07T15:19:41.973Z,49.21
2022-11-07T15:20:41.993Z,49.21
2022-11-07T15:21:41.943Z,49.21
2022-11-07T15:22:41.933Z,49.31
2022-11-07T15:23:41.951Z,49.21
2022-11-07T15:24:41.861Z,49.31
2022-11-07T15:25:41.844Z,49.31
2022-11-07T15:26:41.862Z,49.31
2022-11-07T15:27:41.882Z,49.31
2022-11-07T15:28:41.872Z,49.31
2022-11-07T15:29:41.881Z,49.33
2022-11-07T15:30:41.873Z,49.33
2022-11-07T15:31:41.831Z,49.33
2022-11-07T15:32:41.827Z,49.33
2022-11-07T15:33:41.823Z,49.33
2022-11-07T15:35:00.791Z,49.43
2022-11-07T15:35:44.535Z,49.43
2022-11-07T15:36:41.784Z,49.43
2022-11-07T15:37:41.776Z,49.43
2022-11-07T15:38:41.775Z,49.43
2022-11-07T15:39:41.774Z,49.43
2022-11-07T15:40:41.783Z,49.43
2022-11-07T15:41:41.732Z,49.43
2022-11-07T15:42:41.722Z,49.43
2022-11-07T15:43:41.730Z,49.54
2022-11-07T15:44:41.723Z,49.43
2022-11-07T15:45:41.692Z,49.54
2022-11-07T15:46:41.703Z,49.54
2022-11-07T15:47:41.672Z,49.54
2022-11-07T15:48:41.666Z,49.54
2022-11-07T15:49:41.666Z,49.54
2022-11-07T15:50:41.675Z,49.54
2022-11-07T15:51:41.645Z,49.54
2022-11-07T15:52:41.645Z,49.54
2022-11-07T15:53:41.636Z,49.54
2022-11-07T15:55:38.515Z,49.54
2022-11-07T15:56:38.485Z,49.54
2022-11-07T15:57:38.466Z,49.54
2022-11-07T15:58:38.466Z,49.54
2022-11-07T15:59:38.444Z,49.54
2022-11-07T16:00:38.456Z,49.63
2022-11-07T16:01:38.552Z,49.63
2022-11-07T16:02:38.576Z,49.63
2022-11-07T16:03:38.435Z,49.63
2022-11-07T16:04:39.926Z,49.63
2022-11-07T16:05:38.399Z,49.63
2022-11-07T16:06:43.395Z,49.63
2022-11-07T16:07:39.369Z,49.63
2022-11-07T16:08:38.367Z,49.63
2022-11-07T16:09:38.367Z,49.63
2022-11-07T16:10:38.334Z,49.63
2022-11-07T16:11:38.337Z,49.63
2022-11-07T16:12:38.317Z,49.54
2022-11-07T16:13:38.335Z,49.54
2022-11-07T16:14:44.089Z,49.63
2022-11-07T16:15:39.307Z,49.74
2022-11-07T16:16:38.954Z,49.74
2022-11-07T16:17:38.266Z,49.74
2022-11-07T16:18:38.269Z,49.84
2022-11-07T16:19:38.248Z,49.84
2022-11-07T16:20:38.228Z,49.84
2022-11-07T16:21:38.248Z,49.93
2022-11-07T16:22:38.206Z,50.04
2022-11-07T16:23:38.217Z,49.93
2022-11-07T16:24:38.188Z,49.93
2022-11-07T16:25:38.177Z,49.84
2022-11-07T16:26:38.209Z,49.84
2022-11-07T16:27:38.186Z,49.74
2022-11-07T16:28:38.189Z,49.74
2022-11-07T16:29:38.148Z,49.63
2022-11-07T16:30:38.138Z,49.63
2022-11-07T16:31:38.146Z,49.63
2022-11-07T16:32:38.110Z,49.74
2022-11-07T16:33:38.099Z,49.63
2022-11-07T16:34:38.096Z,49.63
2022-11-07T16:35:38.086Z,49.63
2022-11-07T16:36:38.087Z,49.63
2022-11-07T16:37:38.067Z,49.63
2022-11-07T16:38:38.052Z,49.63
2022-11-07T16:39:38.077Z,49.63
2022-11-07T16:40:38.089Z,49.63
2022-11-07T16:41:38.025Z,49.54
2022-11-07T16:42:38.019Z,49.54
2022-11-07T16:43:38.012Z,49.54
2022-11-07T16:44:38.056Z,49.43
2022-11-07T16:45:38.014Z,49.54
2022-11-07T16:46:38.038Z,49.54
2022-11-07T16:47:38.073Z,49.43
2022-11-07T16:48:37.959Z,49.54
2022-11-07T16:49:37.939Z,49.54
2022-11-07T16:50:37.936Z,49.43
2022-11-07T16:51:37.929Z,49.54
2022-11-07T16:52:37.927Z,49.43
2022-11-07T16:53:37.948Z,49.43
2022-11-07T16:54:37.917Z,49.43
2022-11-07T16:55:37.877Z,49.54
2022-11-07T16:56:37.868Z,49.54
2022-11-07T16:57:37.847Z,49.43
2022-11-07T16:58:37.860Z,49.54
2022-11-07T16:59:37.890Z,49.43
2022-11-07T17:00:37.820Z,49.54
2022-11-07T17:01:43.063Z,49.43
2022-11-07T17:02:37.948Z,49.43
2022-11-07T17:03:37.797Z,49.54
2022-11-07T17:04:37.818Z,49.54
2022-11-07T17:05:37.779Z,49.54
2022-11-07T17:06:37.759Z,49.54
2022-11-07T17:07:37.798Z,49.54
2022-11-07T17:08:37.757Z,49.43
2022-11-07T17:09:37.728Z,49.43
2022-11-07T17:10:37.718Z,49.43
2022-11-07T17:11:37.794Z,49.54
2022-11-07T17:12:38.089Z,49.54
2022-11-07T17:13:37.698Z,49.54
2022-11-07T17:14:37.679Z,49.54
2022-11-07T17:15:37.680Z,49.54
2022-11-07T17:16:37.696Z,49.54
2022-11-07T17:17:37.670Z,49.54
2022-11-07T17:18:37.660Z,49.54
2022-11-07T17:19:37.630Z,49.43
2022-11-07T17:20:52.992Z,49.43
2022-11-07T17:21:38.633Z,49.43
2022-11-07T17:22:37.658Z,49.43
2022-11-07T17:23:37.629Z,49.43
2022-11-07T17:24:37.578Z,49.43
2022-11-07T17:25:37.598Z,49.43
2022-11-07T17:26:38.250Z,49.43
2022-11-07T17:27:37.551Z,49.43
2022-11-07T17:28:38.072Z,49.33
2022-11-07T17:29:37.530Z,49.43
2022-11-07T17:30:37.547Z,49.43
2022-11-07T17:31:37.525Z,49.43
2022-11-07T17:32:37.499Z,49.43
2022-11-07T17:33:37.498Z,49.43
2022-11-07T17:34:37.569Z,49.43
2022-11-07T17:35:37.488Z,49.43
2022-11-07T17:36:38.266Z,49.43
2022-11-07T17:37:37.457Z,49.43
2022-11-07T17:38:37.460Z,49.43
2022-11-07T17:39:37.440Z,49.43
2022-11-07T17:40:37.631Z,49.43
2022-11-07T17:41:37.450Z,49.43
2022-11-07T17:42:38.439Z,49.54
2022-11-07T17:43:37.392Z,49.43
2022-11-07T17:44:37.400Z,49.43
2022-11-07T17:45:37.380Z,49.43
2022-11-07T17:46:37.361Z,49.54
2022-11-07T17:47:37.409Z,49.54
2022-11-07T17:48:37.390Z,49.43
2022-11-07T17:49:37.338Z,49.33
2022-11-07T17:50:37.337Z,49.23
2022-11-07T17:51:37.309Z,49.23
2022-11-07T17:52:37.359Z,49.23
2022-11-07T17:53:37.349Z,49.33
2022-11-07T17:54:37.318Z,49.43
2022-11-07T17:55:37.243Z,49.54
2022-11-07T17:56:37.239Z,49.63
2022-11-07T17:57:37.201Z,49.74
2022-11-07T17:58:37.270Z,49.86
2022-11-07T17:59:40.926Z,49.96
2022-11-07T18:00:38.201Z,50.26
2022-11-07T18:01:37.336Z,50.66
2022-11-07T18:02:37.332Z,50.86
2022-11-07T18:03:37.189Z,50.96
2022-11-07T18:04:37.149Z,51.37
2022-11-07T18:05:37.122Z,51.76
2022-11-07T18:06:37.171Z,53.17
2022-11-07T18:07:37.159Z,54.07
2022-11-07T18:08:51.650Z,55.08
2022-11-07T18:09:38.159Z,54.88
2022-11-07T18:10:37.162Z,54.97
2022-11-07T18:11:37.229Z,55.28
2022-11-07T18:12:37.122Z,55.38
2022-11-07T18:13:37.132Z,55.38
2022-11-07T18:14:37.091Z,55.28
2022-11-07T18:15:37.094Z,55.08
2022-11-07T18:16:37.082Z,54.97
2022-11-07T18:17:37.061Z,54.97
2022-11-07T18:18:37.330Z,54.97
2022-11-07T18:19:37.029Z,55.08
2022-11-07T18:20:37.059Z,55.08
2022-11-07T18:21:37.023Z,55.18
2022-11-07T18:22:37.164Z,55.08
2022-11-07T18:23:36.980Z,55.38
2022-11-07T18:24:36.990Z,55.28
2022-11-07T18:25:36.981Z,55.28
2022-11-07T18:26:36.981Z,54.88
2022-11-07T18:27:36.972Z,54.77
2022-11-07T18:28:36.956Z,54.77
2022-11-07T18:29:36.941Z,54.68
2022-11-07T18:30:36.931Z,54.58
2022-11-07T18:31:36.910Z,54.68
2022-11-07T18:32:36.963Z,54.58
2022-11-07T18:33:36.918Z,54.47
2022-11-07T18:34:36.882Z,54.47
2022-11-07T18:35:36.875Z,54.38
2022-11-07T18:36:36.855Z,54.38
2022-11-07T18:37:36.861Z,54.27
2022-11-07T18:38:36.834Z,54.17
2022-11-07T18:39:36.851Z,54.17
2022-11-07T18:40:36.823Z,54.17
2022-11-07T18:41:36.853Z,54.17
2022-11-07T18:42:36.828Z,53.97
2022-11-07T18:43:36.799Z,53.97
2022-11-07T18:44:36.781Z,53.87
2022-11-07T18:45:36.802Z,53.77
2022-11-07T18:46:36.770Z,53.77
2022-11-07T18:47:36.761Z,53.67
2022-11-07T18:48:36.761Z,53.57
2022-11-07T18:49:36.729Z,53.57
2022-11-07T18:50:36.723Z,53.47
2022-11-07T18:51:36.745Z,53.47
2022-11-07T18:52:36.704Z,53.47
2022-11-07T18:53:36.693Z,53.37
2022-11-07T18:54:36.700Z,53.27
2022-11-07T18:55:36.675Z,53.27
2022-11-07T18:56:36.683Z,53.27
2022-11-07T18:57:36.643Z,53.27
2022-11-07T18:58:37.141Z,53.17
2022-11-07T18:59:36.622Z,53.07
2022-11-07T19:00:36.648Z,53.07
2022-11-07T19:01:36.776Z,53.07
2022-11-07T19:02:36.658Z,53.07
2022-11-07T19:03:36.571Z,53.07
2022-11-07T19:04:36.591Z,52.97
2022-11-07T19:05:40.981Z,52.87
2022-11-07T19:06:36.555Z,52.87
2022-11-07T19:07:36.545Z,52.87
2022-11-07T19:08:36.542Z,52.87
2022-11-07T19:09:36.535Z,52.77
2022-11-07T19:10:36.575Z,52.77
2022-11-07T19:11:36.614Z,52.67
2022-11-07T19:12:36.514Z,52.67
2022-11-07T19:13:36.485Z,52.67
2022-11-07T19:14:36.491Z,52.57
2022-11-07T19:15:36.473Z,52.57
2022-11-07T19:16:36.515Z,52.57
2022-11-07T19:17:36.452Z,52.57
2022-11-07T19:18:36.445Z,52.57
2022-11-07T19:19:36.462Z,52.57
2022-11-07T19:20:36.433Z,52.57
2022-11-07T19:21:38.215Z,52.47
2022-11-07T19:22:37.414Z,52.57
2022-11-07T19:23:36.403Z,52.47
2022-11-07T19:24:36.383Z,52.47
2022-11-07T19:25:36.424Z,52.47
2022-11-07T19:26:36.375Z,52.37
2022-11-07T19:27:36.355Z,52.37
2022-11-07T19:28:36.346Z,52.37
2022-11-07T19:29:36.375Z,52.37
2022-11-07T19:30:36.314Z,52.37
2022-11-07T19:31:36.314Z,52.26
2022-11-07T19:32:36.322Z,52.26
2022-11-07T19:33:36.293Z,52.26
2022-11-07T19:34:36.284Z,52.17
2022-11-07T19:35:36.274Z,52.26
2022-11-07T19:36:36.434Z,52.26
2022-11-07T19:37:36.256Z,52.26
2022-11-07T19:38:36.223Z,52.26
2022-11-07T19:39:36.220Z,52.26
2022-11-07T19:40:36.204Z,52.17
2022-11-07T19:41:36.262Z,52.17
2022-11-07T19:42:38.033Z,52.17
2022-11-07T19:43:36.173Z,52.17
2022-11-07T19:44:36.163Z,52.26
2022-11-07T19:45:36.163Z,52.17
2022-11-07T19:46:36.226Z,52.17
2022-11-07T19:47:36.155Z,52.17
2022-11-07T19:48:36.176Z,52.07
2022-11-07T19:49:36.145Z,52.07
2022-11-07T19:50:36.106Z,52.07
2022-11-07T19:51:36.115Z,52.07
2022-11-07T19:52:36.132Z,52.07
2022-11-07T19:53:36.095Z,52.07
2022-11-07T19:54:36.073Z,52.07
2022-11-07T19:55:36.102Z,52.07
2022-11-07T19:56:36.047Z,52.07
2022-11-07T19:57:36.084Z,51.97
2022-11-07T19:58:36.024Z,51.97
2022-11-07T19:59:36.013Z,51.97
2022-11-07T20:00:36.068Z,51.97
2022-11-07T20:01:36.162Z,51.97
2022-11-07T20:02:41.499Z,51.97
2022-11-07T20:03:37.119Z,51.87
2022-11-07T20:04:35.996Z,51.87
2022-11-07T20:05:35.995Z,51.97
2022-11-07T20:06:35.951Z,51.87
2022-11-07T20:07:35.945Z,51.84
2022-11-07T20:08:35.935Z,51.87
2022-11-07T20:09:36.077Z,51.87
2022-11-07T20:10:35.904Z,51.87
2022-11-07T20:11:36.543Z,51.76
2022-11-07T20:12:35.883Z,51.76
2022-11-07T20:13:35.885Z,51.76
2022-11-07T20:14:35.895Z,51.76
2022-11-07T20:15:35.898Z,51.67
2022-11-07T20:16:35.909Z,51.67
2022-11-07T20:17:35.834Z,51.67
2022-11-07T20:18:35.836Z,51.67
2022-11-07T20:19:35.826Z,51.67
2022-11-07T20:20:35.797Z,51.67
2022-11-07T20:21:35.846Z,51.67
2022-11-07T20:22:35.796Z,51.67
2022-11-07T20:23:35.787Z,51.67
2022-11-07T20:24:35.777Z,51.56
2022-11-07T20:25:35.756Z,51.56
2022-11-07T20:26:35.754Z,51.56
2022-11-07T20:27:35.745Z,51.56
2022-11-07T20:28:35.725Z,51.56
2022-11-07T20:29:35.717Z,51.56
2022-11-07T20:30:35.728Z,51.56
2022-11-07T20:31:35.694Z,51.56
2022-11-07T20:32:35.695Z,51.46
2022-11-07T20:33:35.667Z,51.46
2022-11-07T20:34:35.676Z,51.46
2022-11-07T20:35:35.668Z,51.56
2022-11-07T20:36:35.689Z,51.46
2022-11-07T20:37:35.624Z,51.46
2022-11-07T20:38:35.655Z,51.46
2022-11-07T20:39:35.622Z,51.46
2022-11-07T20:40:35.635Z,51.46
2022-11-07T20:41:35.610Z,51.46
2022-11-07T20:42:35.638Z,51.46
2022-11-07T20:43:35.578Z,51.46
2022-11-07T20:44:35.597Z,51.46
2022-11-07T20:45:35.547Z,51.46
2022-11-07T20:46:35.547Z,51.46
2022-11-07T20:47:35.539Z,51.46
2022-11-07T20:48:35.595Z,51.46
2022-11-07T20:49:35.525Z,51.46
2022-11-07T20:50:35.518Z,51.46
2022-11-07T20:51:35.495Z,51.46
2022-11-07T20:52:35.486Z,51.46
2022-11-07T20:53:35.475Z,51.46
2022-11-07T20:54:35.495Z,51.46
2022-11-07T20:56:32.342Z,51.37
2022-11-07T20:57:32.315Z,51.46
2022-11-07T20:58:32.307Z,51.46
2022-11-07T20:59:32.287Z,51.46
2022-11-07T21:00:32.383Z,51.46
2022-11-07T21:01:32.441Z,51.46
2022-11-07T21:02:32.335Z,51.46
2022-11-07T21:03:32.245Z,51.46
2022-11-07T21:04:50.048Z,51.46
2022-11-07T21:05:33.624Z,51.46
2022-11-07T21:06:32.215Z,51.46
2022-11-07T21:07:32.206Z,51.46
2022-11-07T21:08:37.111Z,51.56
2022-11-07T21:09:33.207Z,51.46
2022-11-07T21:10:32.177Z,51.37
2022-11-07T21:11:32.282Z,51.46
2022-11-07T21:12:32.197Z,51.46
2022-11-07T21:13:33.147Z,51.46
2022-11-07T21:14:32.138Z,51.56
2022-11-07T21:15:32.154Z,51.46
2022-11-07T21:16:32.294Z,51.46
2022-11-07T21:17:32.106Z,51.46
2022-11-07T21:18:32.134Z,51.46
2022-11-07T21:19:32.074Z,51.46
2022-11-07T21:20:33.756Z,51.46
2022-11-07T21:21:32.055Z,51.37
2022-11-07T21:22:32.050Z,51.37
2022-11-07T21:23:32.046Z,51.37
2022-11-07T21:24:32.057Z,51.37
2022-11-07T21:25:32.067Z,51.37
2022-11-07T21:26:32.031Z,51.46
2022-11-07T21:27:32.006Z,51.37
2022-11-07T21:28:31.997Z,51.37
2022-11-07T21:29:31.987Z,51.37
2022-11-07T21:30:32.022Z,51.37
2022-11-07T21:31:31.954Z,51.37
2022-11-07T21:32:31.965Z,51.37
2022-11-07T21:33:31.942Z,51.37
2022-11-07T21:34:31.935Z,51.37
2022-11-07T21:35:33.699Z,51.37
2022-11-07T21:36:32.237Z,51.37
2022-11-07T21:37:31.889Z,51.37
2022-11-07T21:38:31.895Z,51.26
2022-11-07T21:39:31.880Z,51.26
2022-11-07T21:40:32.852Z,51.37
2022-11-07T21:41:36.698Z,51.26
2022-11-07T21:42:31.868Z,51.37
2022-11-07T21:43:31.836Z,51.39
2022-11-07T21:44:32.790Z,51.39
2022-11-07T21:45:31.877Z,51.39
2022-11-07T21:46:32.144Z,51.39
2022-11-07T21:47:31.828Z,51.29
2022-11-07T21:48:31.795Z,51.29
2022-11-07T21:49:31.757Z,51.29
2022-11-07T21:50:44.085Z,51.39
2022-11-07T21:51:32.823Z,51.29
2022-11-07T21:52:31.774Z,51.19
2022-11-07T21:53:36.649Z,51.29
2022-11-07T21:54:32.751Z,51.29
2022-11-07T21:55:31.737Z,51.29
2022-11-07T21:56:31.705Z,51.29
2022-11-07T21:57:32.170Z,51.39
2022-11-07T21:58:31.698Z,51.19
2022-11-07T21:59:31.664Z,51.29
2022-11-07T22:00:35.740Z,51.29
2022-11-07T22:01:32.797Z,51.29
2022-11-07T22:02:31.723Z,51.19
2022-11-07T22:04:03.653Z,51.29
2022-11-07T22:04:32.637Z,51.29
2022-11-07T22:05:31.598Z,51.29
2022-11-07T22:06:31.601Z,51.29
2022-11-07T22:07:31.581Z,51.19
2022-11-07T22:08:31.611Z,51.19
2022-11-07T22:09:31.578Z,51.19
2022-11-07T22:10:31.588Z,51.19
2022-11-07T22:11:31.575Z,51.19
2022-11-07T22:12:31.533Z,51.19
2022-11-07T22:13:31.517Z,51.19
2022-11-07T22:14:31.515Z,51.19
2022-11-07T22:15:31.516Z,51.19
2022-11-07T22:16:31.735Z,51.19
2022-11-07T22:17:31.487Z,51.19
2022-11-07T22:18:31.467Z,51.19
2022-11-07T22:19:31.479Z,51.09
2022-11-07T22:20:31.459Z,51.19
2022-11-07T22:21:31.720Z,51.09
2022-11-07T22:22:31.428Z,51.09
2022-11-07T22:23:31.421Z,51.09
2022-11-07T22:24:31.429Z,51.09
2022-11-07T22:25:31.397Z,51.09
2022-11-07T22:26:31.389Z,51.09
2022-11-07T22:27:31.402Z,51.09
2022-11-07T22:28:32.197Z,51.09
2022-11-07T22:29:31.382Z,51.09
2022-11-07T22:30:31.336Z,51.09
2022-11-07T22:31:31.327Z,51.09
2022-11-07T22:32:31.328Z,51.09
2022-11-07T22:33:31.325Z,50.99
2022-11-07T22:34:31.308Z,51.09
2022-11-07T22:35:31.930Z,51.09
2022-11-07T22:36:31.289Z,51.09
2022-11-07T22:37:31.289Z,51.09
2022-11-07T22:38:31.268Z,51.09
2022-11-07T22:39:31.311Z,51.09
2022-11-07T22:40:31.252Z,51.09
2022-11-07T22:41:35.948Z,50.99
2022-11-07T22:42:31.259Z,51.09
2022-11-07T22:43:31.217Z,50.99
2022-11-07T22:44:31.211Z,50.99
2022-11-07T22:45:31.348Z,50.99
2022-11-07T22:46:31.210Z,50.99
2022-11-07T22:47:31.180Z,50.99
2022-11-07T22:48:31.198Z,50.99
2022-11-07T22:49:31.148Z,50.99
2022-11-07T22:50:31.134Z,50.99
2022-11-07T22:51:31.138Z,50.99
2022-11-07T22:52:31.135Z,50.99
2022-11-07T22:53:31.637Z,50.99
2022-11-07T22:54:31.108Z,50.99
2022-11-07T22:55:31.080Z,50.99
2022-11-07T22:56:31.088Z,50.89
2022-11-07T22:57:31.069Z,50.99
2022-11-07T22:58:31.050Z,50.89
2022-11-07T22:59:31.059Z,50.99
2022-11-07T23:00:31.040Z,50.99
2022-11-07T23:01:31.058Z,50.99
2022-11-07T23:02:31.094Z,50.89
2022-11-07T23:03:31.019Z,50.91
2022-11-07T23:04:33.049Z,50.89
2022-11-07T23:05:30.978Z,50.91
2022-11-07T23:06:30.976Z,50.89
2022-11-07T23:07:30.955Z,50.91
2022-11-07T23:08:31.908Z,50.91
2022-11-07T23:09:30.968Z,50.91
2022-11-07T23:10:30.978Z,50.91
2022-11-07T23:11:48.285Z,50.91
2022-11-07T23:12:31.910Z,50.91
2022-11-07T23:13:30.908Z,50.91
2022-11-07T23:14:30.930Z,50.91
2022-11-07T23:15:30.890Z,50.91
2022-11-07T23:16:33.108Z,50.91
2022-11-07T23:17:30.870Z,50.81
2022-11-07T23:18:30.851Z,50.91
2022-11-07T23:19:30.859Z,50.91
2022-11-07T23:20:30.902Z,50.81
2022-11-07T23:21:30.829Z,50.81
2022-11-07T23:22:32.429Z,50.81
2022-11-07T23:23:30.787Z,50.81
2022-11-07T23:24:30.777Z,50.81
2022-11-07T23:25:30.779Z,50.81
2022-11-07T23:26:30.804Z,50.81
2022-11-07T23:27:30.750Z,50.81
2022-11-07T23:28:30.758Z,50.81
2022-11-07T23:29:32.178Z,50.81
2022-11-07T23:30:30.720Z,50.81
2022-11-07T23:31:30.788Z,50.81
2022-11-07T23:32:30.700Z,50.81
2022-11-07T23:33:30.700Z,50.81
2022-11-07T23:34:30.695Z,50.71
2022-11-07T23:35:30.690Z,50.71
2022-11-07T23:36:30.660Z,50.71
2022-11-07T23:37:30.652Z,50.81
2022-11-07T23:38:30.631Z,50.71
2022-11-07T23:39:30.628Z,50.81
2022-11-07T23:40:30.619Z,50.71
2022-11-07T23:41:30.629Z,50.71
2022-11-07T23:42:30.608Z,50.71
2022-11-07T23:43:30.589Z,50.71
2022-11-07T23:44:30.570Z,50.71
2022-11-07T23:45:30.570Z,50.71
2022-11-07T23:46:30.577Z,50.71
2022-11-07T23:47:30.568Z,50.81
2022-11-07T23:48:30.566Z,50.71
2022-11-07T23:49:30.521Z,50.71